Aérodrome :
LOGIN :

S'inscrire | Disclaimer

   EN    FR    IT 

 










Légende :    VFR   VFR Marginal   IFR   IFR Intensif   IFR Très Intensif
Visi : 
Plafond : 
>= 8 km
>= 3000ft
5 à 8 km
1000 à 3000 ft
1500m à 5 km
500 à 1000 ft
800 à 1500m
200 à 500 ft
< 800m
< 200 ft
Symboles :   Orages  Brouillard  Fortes neiges  Fortes précipitations  Vent > 20 kt
SIGMETs :   Divers  Orages  Givrage  Turbulence  Onde Orograph.  Cendres Volcan.






- Altitude de l'aérodrome : 242 ft
- Code IATA : DUB


EIDW - Dublin

DERNIER METAR :
  • 271430Z 29016KT 9999 FEW024 SCT035 07/01 Q1007 NOSIG

METARs EXPIRÉS :
  • 271400Z 29017KT 9999 FEW024 SCT035 07/00 Q1007 NOSIG
  • 271330Z 29018KT 9999 FEW024 SCT035 06/00 Q1007 NOSIG
  • 271300Z 28020KT 9999 FEW024 SCT035 06/01 Q1007 NOSIG
  • 271230Z 28018KT 9999 SCT024 06/01 Q1007 NOSIG
  • 271200Z 27016KT 9999 FEW020 06/02 Q1006 NOSIG

TAF TAF EIDW
Valide du 27 à 12h jusqu'au 28 à 12h UTC


271100Z 2712/2812 28014KT 9999 FEW020
TEMPO 2713/2716 29016G26KT
BECMG 2720/2723 20007KT
BECMG 2800/2803 16010KT
BECMG 2803/2805 -RA SCT010 BKN015
BECMG 2805/2807 16015G25KT
TEMPO 2805/2807 5000 BKN010
BECMG 2807/2809 16020G33KT
TEMPO 2807/2812 4000 -RADZ BKN006
TEMPO 2809/2811 16022G38KT
BECMG 2811/2812 22015G25KT



MET'MAP, la Météo Aéronautique d'un coup d'oeil ! - Copyright ORBIFLY Décembre 2007 - Disclaimer

ORBIFLY MET'MAP TEAM :

Programmation & Développement : Alexandra Zaïnal
Sur une idée originale de : Baudouin d'Aumeries
Assistance à la programmation : Marc-Olivier Méhu
Soutien technique & logistique : Manuel Goepfert

Contact : metmap@orbifly.com




SOURCES & CREDITS :

   NOAA